sensor_id;sensor_type;location;lat;lon;timestamp;temperature;humidity
11812;DHT22;5963;50.184;9.162;2023-07-24T00:01:48;18.30;99.90
11812;DHT22;5963;50.184;9.162;2023-07-24T00:04:35;18.30;99.90
11812;DHT22;5963;50.184;9.162;2023-07-24T00:07:06;18.30;99.90
11812;DHT22;5963;50.184;9.162;2023-07-24T00:09:51;18.40;99.90
11812;DHT22;5963;50.184;9.162;2023-07-24T00:12:26;18.50;99.90
11812;DHT22;5963;50.184;9.162;2023-07-24T00:15:08;18.50;99.90
11812;DHT22;5963;50.184;9.162;2023-07-24T00:17:43;18.40;99.90
11812;DHT22;5963;50.184;9.162;2023-07-24T00:20:16;18.40;99.90
11812;DHT22;5963;50.184;9.162;2023-07-24T00:22:48;18.30;99.90
11812;DHT22;5963;50.184;9.162;2023-07-24T00:25:25;18.20;99.90
11812;DHT22;5963;50.184;9.162;2023-07-24T00:28:06;18.00;99.90
11812;DHT22;5963;50.184;9.162;2023-07-24T00:30:39;18.10;99.90
11812;DHT22;5963;50.184;9.162;2023-07-24T00:33:44;17.90;99.90
11812;DHT22;5963;50.184;9.162;2023-07-24T00:36:20;17.90;99.90
11812;DHT22;5963;50.184;9.162;2023-07-24T00:38:59;17.80;99.90
11812;DHT22;5963;50.184;9.162;2023-07-24T00:41:33;17.60;99.90
11812;DHT22;5963;50.184;9.162;2023-07-24T00:44:07;17.60;99.90
11812;DHT22;5963;50.184;9.162;2023-07-24T00:46:42;17.50;99.90
11812;DHT22;5963;50.184;9.162;2023-07-24T00:49:15;17.60;99.90
11812;DHT22;5963;50.184;9.162;2023-07-24T00:51:58;17.60;99.90
11812;DHT22;5963;50.184;9.162;2023-07-24T00:54:36;17.70;99.90
11812;DHT22;5963;50.184;9.162;2023-07-24T00:57:15;17.80;99.90
11812;DHT22;5963;50.184;9.162;2023-07-24T01:00:01;17.90;99.90
11812;DHT22;5963;50.184;9.162;2023-07-24T01:02:33;17.80;99.90
11812;DHT22;5963;50.184;9.162;2023-07-24T01:05:32;17.80;99.90
11812;DHT22;5963;50.184;9.162;2023-07-24T01:08:12;17.70;99.90
11812;DHT22;5963;50.184;9.162;2023-07-24T01:13:56;17.50;99.90
11812;DHT22;5963;50.184;9.162;2023-07-24T01:16:39;17.40;99.90
11812;DHT22;5963;50.184;9.162;2023-07-24T01:19:20;17.40;99.90
11812;DHT22;5963;50.184;9.162;2023-07-24T01:22:02;17.40;99.90
11812;DHT22;5963;50.184;9.162;2023-07-24T01:25:04;17.30;99.90
11812;DHT22;5963;50.184;9.162;2023-07-24T01:27:41;17.40;99.90
11812;DHT22;5963;50.184;9.162;2023-07-24T01:30:27;17.50;99.90
11812;DHT22;5963;50.184;9.162;2023-07-24T01:33:14;17.60;99.90
11812;DHT22;5963;50.184;9.162;2023-07-24T01:35:52;17.80;99.90
11812;DHT22;5963;50.184;9.162;2023-07-24T01:38:33;17.90;99.90
11812;DHT22;5963;50.184;9.162;2023-07-24T01:41:15;17.80;99.90
11812;DHT22;5963;50.184;9.162;2023-07-24T01:43:48;17.90;99.90
11812;DHT22;5963;50.184;9.162;2023-07-24T01:46:38;17.90;99.90
11812;DHT22;5963;50.184;9.162;2023-07-24T01:49:10;17.60;99.90
11812;DHT22;5963;50.184;9.162;2023-07-24T01:51:51;17.50;99.90
11812;DHT22;5963;50.184;9.162;2023-07-24T01:54:28;17.40;99.90
11812;DHT22;5963;50.184;9.162;2023-07-24T01:56:59;17.30;99.90
11812;DHT22;5963;50.184;9.162;2023-07-24T01:59:40;17.30;99.90
11812;DHT22;5963;50.184;9.162;2023-07-24T02:02:29;17.30;99.90
11812;DHT22;5963;50.184;9.162;2023-07-24T02:05:04;17.30;99.90
11812;DHT22;5963;50.184;9.162;2023-07-24T02:07:36;17.30;99.90
11812;DHT22;5963;50.184;9.162;2023-07-24T02:10:16;17.30;99.90
11812;DHT22;5963;50.184;9.162;2023-07-24T02:12:50;17.40;99.90
11812;DHT22;5963;50.184;9.162;2023-07-24T02:15:49;17.30;99.90
11812;DHT22;5963;50.184;9.162;2023-07-24T02:18:21;17.30;99.90
11812;DHT22;5963;50.184;9.162;2023-07-24T02:20:53;17.30;99.90
11812;DHT22;5963;50.184;9.162;2023-07-24T02:23:44;17.40;99.90
11812;DHT22;5963;50.184;9.162;2023-07-24T02:26:31;17.50;99.90
11812;DHT22;5963;50.184;9.162;2023-07-24T02:29:12;17.60;99.90
11812;DHT22;5963;50.184;9.162;2023-07-24T02:32:08;17.60;99.90
11812;DHT22;5963;50.184;9.162;2023-07-24T02:34:40;17.50;99.90
11812;DHT22;5963;50.184;9.162;2023-07-24T02:37:11;17.30;99.90
11812;DHT22;5963;50.184;9.162;2023-07-24T02:39:42;17.30;99.90
11812;DHT22;5963;50.184;9.162;2023-07-24T02:42:21;17.30;99.90
11812;DHT22;5963;50.184;9.162;2023-07-24T02:44:59;17.50;99.90
11812;DHT22;5963;50.184;9.162;2023-07-24T02:47:37;17.60;99.90
11812;DHT22;5963;50.184;9.162;2023-07-24T02:50:12;17.60;99.90
11812;DHT22;5963;50.184;9.162;2023-07-24T02:53:17;17.60;99.90
11812;DHT22;5963;50.184;9.162;2023-07-24T02:55:51;17.60;99.90
11812;DHT22;5963;50.184;9.162;2023-07-24T02:58:46;17.50;99.90
11812;DHT22;5963;50.184;9.162;2023-07-24T03:01:22;17.30;99.90
11812;DHT22;5963;50.184;9.162;2023-07-24T03:03:57;17.20;99.90
11812;DHT22;5963;50.184;9.162;2023-07-24T03:06:32;17.10;99.90
11812;DHT22;5963;50.184;9.162;2023-07-24T03:09:23;17.10;99.90
11812;DHT22;5963;50.184;9.162;2023-07-24T03:11:56;17.20;99.90
11812;DHT22;5963;50.184;9.162;2023-07-24T03:14:36;17.30;99.90
11812;DHT22;5963;50.184;9.162;2023-07-24T03:17:22;17.50;99.90
11812;DHT22;5963;50.184;9.162;2023-07-24T03:20:19;17.70;99.90
11812;DHT22;5963;50.184;9.162;2023-07-24T03:23:11;17.80;99.90
11812;DHT22;5963;50.184;9.162;2023-07-24T03:25:45;17.80;99.90
11812;DHT22;5963;50.184;9.162;2023-07-24T03:28:23;17.70;99.90
11812;DHT22;5963;50.184;9.162;2023-07-24T03:31:07;17.70;99.90
11812;DHT22;5963;50.184;9.162;2023-07-24T03:34:11;17.60;99.90
11812;DHT22;5963;50.184;9.162;2023-07-24T03:36:52;17.60;99.90
11812;DHT22;5963;50.184;9.162;2023-07-24T03:39:55;17.40;99.90
11812;DHT22;5963;50.184;9.162;2023-07-24T03:43:05;17.30;99.90
11812;DHT22;5963;50.184;9.162;2023-07-24T03:45:47;17.30;99.90
11812;DHT22;5963;50.184;9.162;2023-07-24T03:48:35;17.40;99.90
11812;DHT22;5963;50.184;9.162;2023-07-24T03:51:25;17.40;99.90
11812;DHT22;5963;50.184;9.162;2023-07-24T03:54:17;17.40;99.90
11812;DHT22;5963;50.184;9.162;2023-07-24T03:57:06;17.40;99.90
11812;DHT22;5963;50.184;9.162;2023-07-24T04:00:04;17.40;99.90
11812;DHT22;5963;50.184;9.162;2023-07-24T04:02:37;17.40;99.90
11812;DHT22;5963;50.184;9.162;2023-07-24T04:05:14;17.40;99.90
11812;DHT22;5963;50.184;9.162;2023-07-24T04:07:50;17.40;99.90
11812;DHT22;5963;50.184;9.162;2023-07-24T04:10:53;17.40;99.90
11812;DHT22;5963;50.184;9.162;2023-07-24T04:13:46;17.40;99.90
11812;DHT22;5963;50.184;9.162;2023-07-24T04:16:33;17.50;99.90
11812;DHT22;5963;50.184;9.162;2023-07-24T04:19:20;17.40;99.90
11812;DHT22;5963;50.184;9.162;2023-07-24T04:22:07;17.40;99.90
11812;DHT22;5963;50.184;9.162;2023-07-24T04:24:47;17.50;99.90
11812;DHT22;5963;50.184;9.162;2023-07-24T04:27:55;17.60;99.90
11812;DHT22;5963;50.184;9.162;2023-07-24T04:30:55;17.60;99.90
11812;DHT22;5963;50.184;9.162;2023-07-24T04:36:43;17.80;99.90
11812;DHT22;5963;50.184;9.162;2023-07-24T04:39:22;18.10;99.90
11812;DHT22;5963;50.184;9.162;2023-07-24T04:42:13;18.20;99.90
11812;DHT22;5963;50.184;9.162;2023-07-24T04:45:10;18.40;99.90
11812;DHT22;5963;50.184;9.162;2023-07-24T04:48:12;18.50;99.90
11812;DHT22;5963;50.184;9.162;2023-07-24T04:50:58;18.60;99.90
11812;DHT22;5963;50.184;9.162;2023-07-24T04:54:22;18.70;99.90
11812;DHT22;5963;50.184;9.162;2023-07-24T04:57:10;18.80;99.90
11812;DHT22;5963;50.184;9.162;2023-07-24T04:59:58;19.00;99.90
11812;DHT22;5963;50.184;9.162;2023-07-24T05:02:52;19.10;99.90
11812;DHT22;5963;50.184;9.162;2023-07-24T05:05:39;19.10;99.90
11812;DHT22;5963;50.184;9.162;2023-07-24T05:08:21;19.20;99.90
11812;DHT22;5963;50.184;9.162;2023-07-24T05:11:42;19.30;99.90
11812;DHT22;5963;50.184;9.162;2023-07-24T05:14:28;19.40;99.90
11812;DHT22;5963;50.184;9.162;2023-07-24T05:17:04;19.60;99.90
11812;DHT22;5963;50.184;9.162;2023-07-24T05:20:05;19.80;99.90
11812;DHT22;5963;50.184;9.162;2023-07-24T05:22:59;19.80;99.90
11812;DHT22;5963;50.184;9.162;2023-07-24T05:25:42;19.70;99.90
11812;DHT22;5963;50.184;9.162;2023-07-24T05:28:19;19.50;99.90
11812;DHT22;5963;50.184;9.162;2023-07-24T05:31:10;19.40;99.90
11812;DHT22;5963;50.184;9.162;2023-07-24T05:34:03;19.40;99.90
11812;DHT22;5963;50.184;9.162;2023-07-24T05:36:41;19.40;99.90
11812;DHT22;5963;50.184;9.162;2023-07-24T05:39:31;19.40;99.90
11812;DHT22;5963;50.184;9.162;2023-07-24T05:42:24;19.40;99.90
11812;DHT22;5963;50.184;9.162;2023-07-24T05:45:50;19.40;99.90
11812;DHT22;5963;50.184;9.162;2023-07-24T05:48:11;19.60;99.90
11812;DHT22;5963;50.184;9.162;2023-07-24T05:51:07;19.90;99.90
11812;DHT22;5963;50.184;9.162;2023-07-24T05:54:16;20.10;99.90
11812;DHT22;5963;50.184;9.162;2023-07-24T05:57:05;20.30;99.90
11812;DHT22;5963;50.184;9.162;2023-07-24T05:59:45;20.50;99.90
11812;DHT22;5963;50.184;9.162;2023-07-24T06:02:22;20.70;99.90
11812;DHT22;5963;50.184;9.162;2023-07-24T06:05:33;20.80;99.90
11812;DHT22;5963;50.184;9.162;2023-07-24T06:08:25;21.00;99.90
11812;DHT22;5963;50.184;9.162;2023-07-24T06:11:19;21.10;99.90
11812;DHT22;5963;50.184;9.162;2023-07-24T06:14:04;21.30;99.90
11812;DHT22;5963;50.184;9.162;2023-07-24T06:16:58;21.60;99.90
11812;DHT22;5963;50.184;9.162;2023-07-24T06:19:39;21.80;99.90
11812;DHT22;5963;50.184;9.162;2023-07-24T06:22:14;22.00;99.90
11812;DHT22;5963;50.184;9.162;2023-07-24T06:24:45;21.80;99.90
11812;DHT22;5963;50.184;9.162;2023-07-24T06:30:36;21.70;99.90
11812;DHT22;5963;50.184;9.162;2023-07-24T06:33:53;21.60;99.90
11812;DHT22;5963;50.184;9.162;2023-07-24T06:36:56;21.70;99.90
11812;DHT22;5963;50.184;9.162;2023-07-24T06:39:52;21.50;99.90
11812;DHT22;5963;50.184;9.162;2023-07-24T06:42:29;21.50;99.90
11812;DHT22;5963;50.184;9.162;2023-07-24T06:48:00;21.40;99.90
11812;DHT22;5963;50.184;9.162;2023-07-24T06:50:55;21.50;99.90
11812;DHT22;5963;50.184;9.162;2023-07-24T06:53:47;21.50;99.90
11812;DHT22;5963;50.184;9.162;2023-07-24T06:56:40;21.60;99.90
11812;DHT22;5963;50.184;9.162;2023-07-24T06:59:20;21.80;99.90
11812;DHT22;5963;50.184;9.162;2023-07-24T07:02:02;21.90;99.90
11812;DHT22;5963;50.184;9.162;2023-07-24T07:04:47;22.10;99.90
11812;DHT22;5963;50.184;9.162;2023-07-24T07:08:35;22.50;99.90
11812;DHT22;5963;50.184;9.162;2023-07-24T07:10:35;22.40;99.90
11812;DHT22;5963;50.184;9.162;2023-07-24T07:13:15;22.30;99.90
11812;DHT22;5963;50.184;9.162;2023-07-24T07:16:07;22.50;99.90
11812;DHT22;5963;50.184;9.162;2023-07-24T07:19:00;22.60;99.90
11812;DHT22;5963;50.184;9.162;2023-07-24T07:21:43;22.80;99.90
11812;DHT22;5963;50.184;9.162;2023-07-24T07:27:28;23.20;99.90
11812;DHT22;5963;50.184;9.162;2023-07-24T07:30:02;23.00;99.90
11812;DHT22;5963;50.184;9.162;2023-07-24T07:32:54;23.20;99.90
11812;DHT22;5963;50.184;9.162;2023-07-24T07:35:35;23.60;99.90
11812;DHT22;5963;50.184;9.162;2023-07-24T07:38:18;23.70;99.90
11812;DHT22;5963;50.184;9.162;2023-07-24T07:40:58;23.70;99.90
11812;DHT22;5963;50.184;9.162;2023-07-24T07:43:39;23.90;99.90
11812;DHT22;5963;50.184;9.162;2023-07-24T07:46:13;23.80;99.90
11812;DHT22;5963;50.184;9.162;2023-07-24T07:49:11;23.90;99.90
11812;DHT22;5963;50.184;9.162;2023-07-24T07:51:48;24.10;99.90
11812;DHT22;5963;50.184;9.162;2023-07-24T07:54:22;24.20;99.90
11812;DHT22;5963;50.184;9.162;2023-07-24T07:56:59;24.40;99.90
11812;DHT22;5963;50.184;9.162;2023-07-24T07:59:40;24.60;99.90
11812;DHT22;5963;50.184;9.162;2023-07-24T08:02:18;24.70;99.90
11812;DHT22;5963;50.184;9.162;2023-07-24T08:06:23;24.10;99.90
11812;DHT22;5963;50.184;9.162;2023-07-24T08:08:41;24.40;99.90
11812;DHT22;5963;50.184;9.162;2023-07-24T08:11:30;24.70;99.90
11812;DHT22;5963;50.184;9.162;2023-07-24T08:14:02;24.80;99.90
11812;DHT22;5963;50.184;9.162;2023-07-24T08:16:38;24.20;99.90
11812;DHT22;5963;50.184;9.162;2023-07-24T08:19:23;23.60;99.90
11812;DHT22;5963;50.184;9.162;2023-07-24T08:25:24;23.50;99.90
11812;DHT22;5963;50.184;9.162;2023-07-24T08:28:12;23.90;99.90
11812;DHT22;5963;50.184;9.162;2023-07-24T08:30:57;24.10;99.90
11812;DHT22;5963;50.184;9.162;2023-07-24T08:33:39;24.20;99.90
11812;DHT22;5963;50.184;9.162;2023-07-24T08:36:53;24.70;99.90
11812;DHT22;5963;50.184;9.162;2023-07-24T08:39:54;24.90;99.90
11812;DHT22;5963;50.184;9.162;2023-07-24T08:45:30;24.30;99.90
11812;DHT22;5963;50.184;9.162;2023-07-24T08:48:30;24.20;99.90
11812;DHT22;5963;50.184;9.162;2023-07-24T08:51:37;24.30;99.90
11812;DHT22;5963;50.184;9.162;2023-07-24T08:54:24;24.20;99.90
11812;DHT22;5963;50.184;9.162;2023-07-24T08:56:56;24.00;99.90
11812;DHT22;5963;50.184;9.162;2023-07-24T08:59:59;23.90;99.90
11812;DHT22;5963;50.184;9.162;2023-07-24T09:02:55;23.90;99.90
11812;DHT22;5963;50.184;9.162;2023-07-24T09:05:56;23.90;99.90
11812;DHT22;5963;50.184;9.162;2023-07-24T09:08:46;23.90;99.90
11812;DHT22;5963;50.184;9.162;2023-07-24T09:11:50;24.00;99.90
11812;DHT22;5963;50.184;9.162;2023-07-24T09:14:40;24.00;99.90
11812;DHT22;5963;50.184;9.162;2023-07-24T09:20:37;23.80;99.90
11812;DHT22;5963;50.184;9.162;2023-07-24T09:21:12;24.20;99.90
11812;DHT22;5963;50.184;9.162;2023-07-24T09:23:57;24.20;99.90
11812;DHT22;5963;50.184;9.162;2023-07-24T09:26:50;24.40;99.90
11812;DHT22;5963;50.184;9.162;2023-07-24T09:29:33;24.90;99.90
11812;DHT22;5963;50.184;9.162;2023-07-24T09:32:51;24.70;99.90
11812;DHT22;5963;50.184;9.162;2023-07-24T09:35:34;25.00;99.90
11812;DHT22;5963;50.184;9.162;2023-07-24T09:38:25;25.50;99.90
11812;DHT22;5963;50.184;9.162;2023-07-24T09:41:29;25.70;99.90
11812;DHT22;5963;50.184;9.162;2023-07-24T09:44:13;25.10;99.90
11812;DHT22;5963;50.184;9.162;2023-07-24T09:46:57;25.40;99.90
11812;DHT22;5963;50.184;9.162;2023-07-24T09:49:55;25.70;99.90
11812;DHT22;5963;50.184;9.162;2023-07-24T09:52:45;25.90;99.90
11812;DHT22;5963;50.184;9.162;2023-07-24T09:55:51;25.90;99.90
11812;DHT22;5963;50.184;9.162;2023-07-24T09:58:52;25.50;99.90
11812;DHT22;5963;50.184;9.162;2023-07-24T10:01:27;25.00;99.90
11812;DHT22;5963;50.184;9.162;2023-07-24T10:04:15;24.60;99.90
11812;DHT22;5963;50.184;9.162;2023-07-24T10:07:36;24.40;99.90
11812;DHT22;5963;50.184;9.162;2023-07-24T10:10:18;24.50;99.90
11812;DHT22;5963;50.184;9.162;2023-07-24T10:13:09;24.50;99.90
11812;DHT22;5963;50.184;9.162;2023-07-24T10:15:53;24.60;99.90
11812;DHT22;5963;50.184;9.162;2023-07-24T10:18:34;24.90;99.90
11812;DHT22;5963;50.184;9.162;2023-07-24T10:21:06;24.60;99.90
11812;DHT22;5963;50.184;9.162;2023-07-24T10:23:53;24.50;99.90
11812;DHT22;5963;50.184;9.162;2023-07-24T10:26:29;24.70;99.90
11812;DHT22;5963;50.184;9.162;2023-07-24T10:29:03;24.50;99.90
11812;DHT22;5963;50.184;9.162;2023-07-24T10:31:54;24.50;99.90
11812;DHT22;5963;50.184;9.162;2023-07-24T10:34:51;24.40;99.90
11812;DHT22;5963;50.184;9.162;2023-07-24T10:37:43;24.40;99.90
11812;DHT22;5963;50.184;9.162;2023-07-24T10:41:03;24.20;99.90
11812;DHT22;5963;50.184;9.162;2023-07-24T10:43:58;24.30;99.90
11812;DHT22;5963;50.184;9.162;2023-07-24T10:50:11;24.20;99.90
11812;DHT22;5963;50.184;9.162;2023-07-24T10:52:50;24.50;99.90
11812;DHT22;5963;50.184;9.162;2023-07-24T10:58:52;24.40;99.90
11812;DHT22;5963;50.184;9.162;2023-07-24T11:01:35;24.60;99.90
11812;DHT22;5963;50.184;9.162;2023-07-24T11:04:11;24.70;99.90
11812;DHT22;5963;50.184;9.162;2023-07-24T11:07:08;25.00;99.90
11812;DHT22;5963;50.184;9.162;2023-07-24T11:10:23;24.80;99.90
11812;DHT22;5963;50.184;9.162;2023-07-24T11:13:21;25.10;99.90
11812;DHT22;5963;50.184;9.162;2023-07-24T11:16:25;25.30;99.90
11812;DHT22;5963;50.184;9.162;2023-07-24T11:19:41;25.90;99.90
11812;DHT22;5963;50.184;9.162;2023-07-24T11:22:01;25.70;99.90
11812;DHT22;5963;50.184;9.162;2023-07-24T11:24:46;25.90;99.90
11812;DHT22;5963;50.184;9.162;2023-07-24T11:27:46;25.60;99.90
11812;DHT22;5963;50.184;9.162;2023-07-24T11:30:33;25.80;99.90
11812;DHT22;5963;50.184;9.162;2023-07-24T11:33:20;26.20;99.90
11812;DHT22;5963;50.184;9.162;2023-07-24T11:38:50;26.10;99.90
11812;DHT22;5963;50.184;9.162;2023-07-24T11:41:29;25.50;99.90
11812;DHT22;5963;50.184;9.162;2023-07-24T11:44:05;25.60;99.90
11812;DHT22;5963;50.184;9.162;2023-07-24T11:46:47;25.20;99.90
11812;DHT22;5963;50.184;9.162;2023-07-24T11:49:56;25.50;99.90
11812;DHT22;5963;50.184;9.162;2023-07-24T11:52:21;25.70;99.90
11812;DHT22;5963;50.184;9.162;2023-07-24T11:55:00;26.00;99.90
11812;DHT22;5963;50.184;9.162;2023-07-24T11:57:43;25.60;99.90
11812;DHT22;5963;50.184;9.162;2023-07-24T12:00:32;25.70;99.90
11812;DHT22;5963;50.184;9.162;2023-07-24T12:03:44;25.90;99.90
11812;DHT22;5963;50.184;9.162;2023-07-24T12:06:38;26.50;99.90
11812;DHT22;5963;50.184;9.162;2023-07-24T12:09:34;26.10;99.90
11812;DHT22;5963;50.184;9.162;2023-07-24T12:12:16;25.80;99.90
11812;DHT22;5963;50.184;9.162;2023-07-24T12:15:21;25.70;99.90
11812;DHT22;5963;50.184;9.162;2023-07-24T12:18:23;25.90;99.90
11812;DHT22;5963;50.184;9.162;2023-07-24T12:21:21;25.50;99.90
11812;DHT22;5963;50.184;9.162;2023-07-24T12:23:55;25.60;99.90
11812;DHT22;5963;50.184;9.162;2023-07-24T12:26:59;25.80;99.90
11812;DHT22;5963;50.184;9.162;2023-07-24T12:30:06;25.90;99.90
11812;DHT22;5963;50.184;9.162;2023-07-24T12:32:57;25.70;99.90
11812;DHT22;5963;50.184;9.162;2023-07-24T12:35:55;25.60;99.90
11812;DHT22;5963;50.184;9.162;2023-07-24T12:38:43;25.20;99.90
11812;DHT22;5963;50.184;9.162;2023-07-24T12:41:32;25.50;99.90
11812;DHT22;5963;50.184;9.162;2023-07-24T12:44:23;25.20;99.90
11812;DHT22;5963;50.184;9.162;2023-07-24T12:47:03;25.10;99.90
11812;DHT22;5963;50.184;9.162;2023-07-24T12:49:54;25.20;99.90
11812;DHT22;5963;50.184;9.162;2023-07-24T12:53:05;25.50;99.90
11812;DHT22;5963;50.184;9.162;2023-07-24T12:55:56;25.60;99.90
11812;DHT22;5963;50.184;9.162;2023-07-24T12:58:34;25.90;99.90
11812;DHT22;5963;50.184;9.162;2023-07-24T13:01:14;25.70;99.90
11812;DHT22;5963;50.184;9.162;2023-07-24T13:04:05;26.10;99.90
11812;DHT22;5963;50.184;9.162;2023-07-24T13:07:01;26.20;99.90
11812;DHT22;5963;50.184;9.162;2023-07-24T13:09:45;26.20;99.90
11812;DHT22;5963;50.184;9.162;2023-07-24T13:12:27;26.10;99.90
11812;DHT22;5963;50.184;9.162;2023-07-24T13:15:10;26.20;99.90
11812;DHT22;5963;50.184;9.162;2023-07-24T13:17:43;26.60;99.90
11812;DHT22;5963;50.184;9.162;2023-07-24T13:20:57;26.90;99.90
11812;DHT22;5963;50.184;9.162;2023-07-24T13:23:33;27.30;99.90
11812;DHT22;5963;50.184;9.162;2023-07-24T13:26:05;26.80;99.90
11812;DHT22;5963;50.184;9.162;2023-07-24T13:28:56;26.80;99.90
11812;DHT22;5963;50.184;9.162;2023-07-24T13:31:28;26.60;99.90
11812;DHT22;5963;50.184;9.162;2023-07-24T13:34:04;26.70;99.90
11812;DHT22;5963;50.184;9.162;2023-07-24T13:36:54;26.50;99.90
11812;DHT22;5963;50.184;9.162;2023-07-24T13:40:02;26.40;99.90
11812;DHT22;5963;50.184;9.162;2023-07-24T13:42:45;26.40;99.90
11812;DHT22;5963;50.184;9.162;2023-07-24T13:45:34;26.60;99.90
11812;DHT22;5963;50.184;9.162;2023-07-24T13:48:22;26.80;99.90
11812;DHT22;5963;50.184;9.162;2023-07-24T13:51:15;26.80;99.90
11812;DHT22;5963;50.184;9.162;2023-07-24T13:54:06;26.30;99.90
11812;DHT22;5963;50.184;9.162;2023-07-24T13:57:16;25.90;99.90
11812;DHT22;5963;50.184;9.162;2023-07-24T13:59:58;25.80;99.90
11812;DHT22;5963;50.184;9.162;2023-07-24T14:02:34;25.60;99.90
11812;DHT22;5963;50.184;9.162;2023-07-24T14:05:24;25.80;99.90
11812;DHT22;5963;50.184;9.162;2023-07-24T14:07:58;26.10;99.90
11812;DHT22;5963;50.184;9.162;2023-07-24T14:10:30;25.90;99.90
11812;DHT22;5963;50.184;9.162;2023-07-24T14:13:13;25.80;99.90
11812;DHT22;5963;50.184;9.162;2023-07-24T14:15:47;25.70;99.90
11812;DHT22;5963;50.184;9.162;2023-07-24T14:18:47;25.50;99.90
11812;DHT22;5963;50.184;9.162;2023-07-24T14:21:38;25.40;99.90
11812;DHT22;5963;50.184;9.162;2023-07-24T14:24:34;25.10;99.90
11812;DHT22;5963;50.184;9.162;2023-07-24T14:27:22;24.80;99.90
11812;DHT22;5963;50.184;9.162;2023-07-24T14:30:09;24.40;99.90
11812;DHT22;5963;50.184;9.162;2023-07-24T14:32:56;24.20;99.90
11812;DHT22;5963;50.184;9.162;2023-07-24T14:35:32;23.90;99.90
11812;DHT22;5963;50.184;9.162;2023-07-24T14:38:37;23.90;99.90
11812;DHT22;5963;50.184;9.162;2023-07-24T14:41:24;23.60;99.90
11812;DHT22;5963;50.184;9.162;2023-07-24T14:44:11;23.50;99.90
11812;DHT22;5963;50.184;9.162;2023-07-24T14:47:08;22.20;99.90
11812;DHT22;5963;50.184;9.162;2023-07-24T14:49:56;21.70;99.90
11812;DHT22;5963;50.184;9.162;2023-07-24T14:53:07;21.80;99.90
11812;DHT22;5963;50.184;9.162;2023-07-24T14:56:03;22.00;99.90
11812;DHT22;5963;50.184;9.162;2023-07-24T15:02:19;22.20;99.90
11812;DHT22;5963;50.184;9.162;2023-07-24T15:04:48;22.60;99.90
11812;DHT22;5963;50.184;9.162;2023-07-24T15:07:26;23.00;99.90
11812;DHT22;5963;50.184;9.162;2023-07-24T15:10:10;23.50;99.90
11812;DHT22;5963;50.184;9.162;2023-07-24T15:12:55;23.50;99.90
11812;DHT22;5963;50.184;9.162;2023-07-24T15:16:09;23.20;99.90
11812;DHT22;5963;50.184;9.162;2023-07-24T15:18:42;23.10;99.90
11812;DHT22;5963;50.184;9.162;2023-07-24T15:21:23;23.00;99.90
11812;DHT22;5963;50.184;9.162;2023-07-24T15:24:17;23.20;99.90
11812;DHT22;5963;50.184;9.162;2023-07-24T15:26:54;23.20;99.90
11812;DHT22;5963;50.184;9.162;2023-07-24T15:29:28;23.40;99.90
11812;DHT22;5963;50.184;9.162;2023-07-24T15:32:05;23.40;99.90
11812;DHT22;5963;50.184;9.162;2023-07-24T15:34:46;23.60;99.90
11812;DHT22;5963;50.184;9.162;2023-07-24T15:37:26;23.60;99.90
11812;DHT22;5963;50.184;9.162;2023-07-24T15:40:01;23.10;99.90
11812;DHT22;5963;50.184;9.162;2023-07-24T15:42:42;23.00;99.90
11812;DHT22;5963;50.184;9.162;2023-07-24T15:45:26;22.90;99.90
11812;DHT22;5963;50.184;9.162;2023-07-24T15:48:04;22.40;99.90
11812;DHT22;5963;50.184;9.162;2023-07-24T15:50:41;22.20;99.90
11812;DHT22;5963;50.184;9.162;2023-07-24T15:53:36;22.00;99.90
11812;DHT22;5963;50.184;9.162;2023-07-24T15:56:41;22.00;99.90
11812;DHT22;5963;50.184;9.162;2023-07-24T15:59:19;22.00;99.90
11812;DHT22;5963;50.184;9.162;2023-07-24T16:02:02;22.10;99.90
11812;DHT22;5963;50.184;9.162;2023-07-24T16:04:40;22.10;99.90
11812;DHT22;5963;50.184;9.162;2023-07-24T16:07:14;22.10;99.90
11812;DHT22;5963;50.184;9.162;2023-07-24T16:09:53;22.20;99.90
11812;DHT22;5963;50.184;9.162;2023-07-24T16:12:28;22.00;99.90
11812;DHT22;5963;50.184;9.162;2023-07-24T16:15:04;21.40;99.90
11812;DHT22;5963;50.184;9.162;2023-07-24T16:17:45;20.60;99.90
11812;DHT22;5963;50.184;9.162;2023-07-24T16:20:28;19.90;99.90
11812;DHT22;5963;50.184;9.162;2023-07-24T16:23:06;19.20;99.90
11812;DHT22;5963;50.184;9.162;2023-07-24T16:25:38;19.10;99.90
11812;DHT22;5963;50.184;9.162;2023-07-24T16:28:21;19.40;99.90
11812;DHT22;5963;50.184;9.162;2023-07-24T16:30:53;19.90;99.90
11812;DHT22;5963;50.184;9.162;2023-07-24T16:33:34;20.20;99.90
11812;DHT22;5963;50.184;9.162;2023-07-24T16:36:11;20.50;99.90
11812;DHT22;5963;50.184;9.162;2023-07-24T16:38:52;20.50;99.90
11812;DHT22;5963;50.184;9.162;2023-07-24T16:41:27;20.70;99.90
11812;DHT22;5963;50.184;9.162;2023-07-24T16:43:59;20.40;99.90
11812;DHT22;5963;50.184;9.162;2023-07-24T16:46:38;20.80;99.90
11812;DHT22;5963;50.184;9.162;2023-07-24T16:49:17;21.10;99.90
11812;DHT22;5963;50.184;9.162;2023-07-24T16:52:17;21.00;99.90
11812;DHT22;5963;50.184;9.162;2023-07-24T16:54:54;21.10;99.90
11812;DHT22;5963;50.184;9.162;2023-07-24T16:57:36;21.50;99.90
11812;DHT22;5963;50.184;9.162;2023-07-24T17:00:15;21.70;99.90
11812;DHT22;5963;50.184;9.162;2023-07-24T17:02:53;21.80;99.90
11812;DHT22;5963;50.184;9.162;2023-07-24T17:05:39;21.80;99.90
11812;DHT22;5963;50.184;9.162;2023-07-24T17:08:09;21.90;99.90
11812;DHT22;5963;50.184;9.162;2023-07-24T17:10:44;22.00;99.90
11812;DHT22;5963;50.184;9.162;2023-07-24T17:13:21;21.80;99.90
11812;DHT22;5963;50.184;9.162;2023-07-24T17:16:06;21.80;99.90
11812;DHT22;5963;50.184;9.162;2023-07-24T17:18:46;21.70;99.90
11812;DHT22;5963;50.184;9.162;2023-07-24T17:21:31;21.70;99.90
11812;DHT22;5963;50.184;9.162;2023-07-24T17:24:03;21.60;99.90
11812;DHT22;5963;50.184;9.162;2023-07-24T17:26:49;20.90;99.90
11812;DHT22;5963;50.184;9.162;2023-07-24T17:29:25;20.90;99.90
11812;DHT22;5963;50.184;9.162;2023-07-24T17:32:02;20.50;99.90
11812;DHT22;5963;50.184;9.162;2023-07-24T17:34:41;20.70;99.90
11812;DHT22;5963;50.184;9.162;2023-07-24T17:37:18;20.70;99.90
11812;DHT22;5963;50.184;9.162;2023-07-24T17:40:06;20.50;99.90
11812;DHT22;5963;50.184;9.162;2023-07-24T17:42:37;20.50;99.90
11812;DHT22;5963;50.184;9.162;2023-07-24T17:45:07;20.30;99.90
11812;DHT22;5963;50.184;9.162;2023-07-24T17:47:37;20.10;99.90
11812;DHT22;5963;50.184;9.162;2023-07-24T17:50:13;20.00;99.90
11812;DHT22;5963;50.184;9.162;2023-07-24T17:52:48;20.00;99.90
11812;DHT22;5963;50.184;9.162;2023-07-24T17:55:21;19.70;99.90
11812;DHT22;5963;50.184;9.162;2023-07-24T17:58:06;19.70;99.90
11812;DHT22;5963;50.184;9.162;2023-07-24T18:00:55;19.60;99.90
11812;DHT22;5963;50.184;9.162;2023-07-24T18:03:40;19.70;99.90
11812;DHT22;5963;50.184;9.162;2023-07-24T18:06:21;19.60;99.90
11812;DHT22;5963;50.184;9.162;2023-07-24T18:09:12;19.60;99.90
11812;DHT22;5963;50.184;9.162;2023-07-24T18:11:47;19.60;99.90
11812;DHT22;5963;50.184;9.162;2023-07-24T18:14:26;19.40;99.90
11812;DHT22;5963;50.184;9.162;2023-07-24T18:17:02;19.20;99.90
11812;DHT22;5963;50.184;9.162;2023-07-24T18:19:33;19.10;99.90